sensor_id;sensor_type;location;lat;lon;timestamp;temperature;humidity
45313;SHT31;68267;51.540;5.854;2023-04-24T00:00:46;9.7;91.4
45313;SHT31;68267;51.540;5.854;2023-04-24T00:14:05;9.6;91.1
45313;SHT31;68267;51.540;5.854;2023-04-24T00:27:25;9.7;90.6
45313;SHT31;68267;51.540;5.854;2023-04-24T00:40:45;9.6;89.5
45313;SHT31;68267;51.540;5.854;2023-04-24T00:54:05;9.6;88.5
45313;SHT31;68267;51.540;5.854;2023-04-24T01:07:24;9.4;89.0
45313;SHT31;68267;51.540;5.854;2023-04-24T01:20:44;9.2;90.4
45313;SHT31;68267;51.540;5.854;2023-04-24T01:34:04;9.2;90.1
45313;SHT31;68267;51.540;5.854;2023-04-24T01:47:24;9.1;90.7
45313;SHT31;68267;51.540;5.854;2023-04-24T02:00:43;9.1;90.8
45313;SHT31;68267;51.540;5.854;2023-04-24T02:14:03;9.1;91.5
45313;SHT31;68267;51.540;5.854;2023-04-24T02:27:23;9.0;91.4
45313;SHT31;68267;51.540;5.854;2023-04-24T02:40:42;9.0;91.4
45313;SHT31;68267;51.540;5.854;2023-04-24T02:54:02;9.0;90.8
45313;SHT31;68267;51.540;5.854;2023-04-24T03:07:22;9.0;90.8
45313;SHT31;68267;51.540;5.854;2023-04-24T03:20:42;9.0;90.3
45313;SHT31;68267;51.540;5.854;2023-04-24T03:34:01;9.1;89.2
45313;SHT31;68267;51.540;5.854;2023-04-24T03:47:21;9.0;88.7
45313;SHT31;68267;51.540;5.854;2023-04-24T04:00:41;9.0;88.1
45313;SHT31;68267;51.540;5.854;2023-04-24T04:14:00;9.1;87.6
45313;SHT31;68267;51.540;5.854;2023-04-24T04:27:20;9.1;86.5
45313;SHT31;68267;51.540;5.854;2023-04-24T04:40:40;9.0;88.4
45313;SHT31;68267;51.540;5.854;2023-04-24T04:53:59;8.8;88.8
45313;SHT31;68267;51.540;5.854;2023-04-24T05:07:19;8.7;90.0
45313;SHT31;68267;51.540;5.854;2023-04-24T05:20:39;8.6;90.9
45313;SHT31;68267;51.540;5.854;2023-04-24T05:33:59;8.5;91.7
45313;SHT31;68267;51.540;5.854;2023-04-24T05:47:18;8.4;92.8
45313;SHT31;68267;51.540;5.854;2023-04-24T06:00:38;8.5;92.4
45313;SHT31;68267;51.540;5.854;2023-04-24T06:13:58;8.4;92.5
45313;SHT31;68267;51.540;5.854;2023-04-24T06:27:18;8.3;92.6
45313;SHT31;68267;51.540;5.854;2023-04-24T06:40:37;8.3;93.0
45313;SHT31;68267;51.540;5.854;2023-04-24T06:53:57;8.4;93.9
45313;SHT31;68267;51.540;5.854;2023-04-24T07:07:17;8.3;93.5
45313;SHT31;68267;51.540;5.854;2023-04-24T07:20:36;8.3;93.0
45313;SHT31;68267;51.540;5.854;2023-04-24T07:33:56;8.4;94.0
45313;SHT31;68267;51.540;5.854;2023-04-24T07:47:16;8.4;93.2
45313;SHT31;68267;51.540;5.854;2023-04-24T08:00:36;8.2;92.3
45313;SHT31;68267;51.540;5.854;2023-04-24T08:13:55;8.1;92.1
45313;SHT31;68267;51.540;5.854;2023-04-24T08:27:15;8.1;92.8
45313;SHT31;68267;51.540;5.854;2023-04-24T08:40:35;8.1;93.4
45313;SHT31;68267;51.540;5.854;2023-04-24T08:53:54;8.2;94.1
45313;SHT31;68267;51.540;5.854;2023-04-24T09:07:14;8.2;93.2
45313;SHT31;68267;51.540;5.854;2023-04-24T09:20:33;8.2;92.0
45313;SHT31;68267;51.540;5.854;2023-04-24T09:33:53;8.4;90.4
45313;SHT31;68267;51.540;5.854;2023-04-24T09:47:13;8.5;91.9
45313;SHT31;68267;51.540;5.854;2023-04-24T10:00:32;9.1;90.4
45313;SHT31;68267;51.540;5.854;2023-04-24T10:13:52;9.1;85.0
45313;SHT31;68267;51.540;5.854;2023-04-24T10:27:11;8.8;85.0
45313;SHT31;68267;51.540;5.854;2023-04-24T10:40:31;9.3;84.6
45313;SHT31;68267;51.540;5.854;2023-04-24T10:53:51;9.5;79.3
45313;SHT31;68267;51.540;5.854;2023-04-24T11:07:10;9.5;77.5
45313;SHT31;68267;51.540;5.854;2023-04-24T11:20:30;9.1;76.1
45313;SHT31;68267;51.540;5.854;2023-04-24T11:33:49;9.2;76.4
45313;SHT31;68267;51.540;5.854;2023-04-24T11:47:09;9.2;78.0
45313;SHT31;68267;51.540;5.854;2023-04-24T12:00:29;9.6;77.2
45313;SHT31;68267;51.540;5.854;2023-04-24T12:13:49;9.7;75.7
45313;SHT31;68267;51.540;5.854;2023-04-24T12:27:08;9.5;75.5
45313;SHT31;68267;51.540;5.854;2023-04-24T12:40:28;9.5;78.8
45313;SHT31;68267;51.540;5.854;2023-04-24T12:53:48;9.9;77.7
45313;SHT31;68267;51.540;5.854;2023-04-24T13:07:07;10.0;74.7
45313;SHT31;68267;51.540;5.854;2023-04-24T13:20:27;9.9;73.6
45313;SHT31;68267;51.540;5.854;2023-04-24T13:33:47;9.0;79.6
45313;SHT31;68267;51.540;5.854;2023-04-24T13:47:06;9.0;80.9
45313;SHT31;68267;51.540;5.854;2023-04-24T14:00:26;9.7;78.1
45313;SHT31;68267;51.540;5.854;2023-04-24T14:13:46;9.1;81.2
45313;SHT31;68267;51.540;5.854;2023-04-24T14:27:05;8.8;83.8
45313;SHT31;68267;51.540;5.854;2023-04-24T14:40:25;9.4;81.1
45313;SHT31;68267;51.540;5.854;2023-04-24T14:53:45;10.0;77.1
45313;SHT31;68267;51.540;5.854;2023-04-24T15:07:05;10.7;79.5
45313;SHT31;68267;51.540;5.854;2023-04-24T15:20:24;10.7;73.6
45313;SHT31;68267;51.540;5.854;2023-04-24T15:33:44;10.0;75.0
45313;SHT31;68267;51.540;5.854;2023-04-24T15:47:04;8.5;81.0
45313;SHT31;68267;51.540;5.854;2023-04-24T16:00:24;8.6;80.5
45313;SHT31;68267;51.540;5.854;2023-04-24T16:13:44;9.2;77.6
45313;SHT31;68267;51.540;5.854;2023-04-24T16:27:04;9.9;75.7
45313;SHT31;68267;51.540;5.854;2023-04-24T16:40:23;10.1;73.9
45313;SHT31;68267;51.540;5.854;2023-04-24T16:53:43;10.5;72.6
45313;SHT31;68267;51.540;5.854;2023-04-24T17:07:03;10.2;69.1
45313;SHT31;68267;51.540;5.854;2023-04-24T17:20:23;10.2;71.5
45313;SHT31;68267;51.540;5.854;2023-04-24T17:33:42;10.1;72.5
45313;SHT31;68267;51.540;5.854;2023-04-24T17:47:02;9.7;70.5
45313;SHT31;68267;51.540;5.854;2023-04-24T18:00:21;9.4;71.9
45313;SHT31;68267;51.540;5.854;2023-04-24T18:13:41;8.9;72.1
45313;SHT31;68267;51.540;5.854;2023-04-24T18:27:01;8.6;74.1
45313;SHT31;68267;51.540;5.854;2023-04-24T18:40:20;8.6;75.0
45313;SHT31;68267;51.540;5.854;2023-04-24T18:53:40;8.4;75.7
45313;SHT31;68267;51.540;5.854;2023-04-24T19:07:00;8.4;76.5
45313;SHT31;68267;51.540;5.854;2023-04-24T19:20:19;8.2;78.2
45313;SHT31;68267;51.540;5.854;2023-04-24T19:33:39;7.8;78.5
45313;SHT31;68267;51.540;5.854;2023-04-24T19:46:59;7.5;79.5
45313;SHT31;68267;51.540;5.854;2023-04-24T20:00:18;7.2;79.9
45313;SHT31;68267;51.540;5.854;2023-04-24T20:13:38;7.0;80.7
45313;SHT31;68267;51.540;5.854;2023-04-24T20:26:58;6.7;81.3
45313;SHT31;68267;51.540;5.854;2023-04-24T20:40:18;6.6;81.5
45313;SHT31;68267;51.540;5.854;2023-04-24T20:53:37;6.5;81.7
45313;SHT31;68267;51.540;5.854;2023-04-24T21:06:57;6.2;82.4
45313;SHT31;68267;51.540;5.854;2023-04-24T21:20:17;6.1;82.6
45313;SHT31;68267;51.540;5.854;2023-04-24T21:33:37;6.1;82.7
45313;SHT31;68267;51.540;5.854;2023-04-24T21:46:56;6.0;83.1
45313;SHT31;68267;51.540;5.854;2023-04-24T22:00:16;5.9;83.4
45313;SHT31;68267;51.540;5.854;2023-04-24T22:13:36;5.9;84.0
45313;SHT31;68267;51.540;5.854;2023-04-24T22:40:15;5.8;85.0
45313;SHT31;68267;51.540;5.854;2023-04-24T22:53:35;5.7;85.5
45313;SHT31;68267;51.540;5.854;2023-04-24T23:06:55;5.6;86.2
45313;SHT31;68267;51.540;5.854;2023-04-24T23:20:14;5.9;86.7
45313;SHT31;68267;51.540;5.854;2023-04-24T23:33:34;6.0;86.0
45313;SHT31;68267;51.540;5.854;2023-04-24T23:46:54;6.3;86.0
